Time;durP1;ratioP1;P1;durP2;ratioP2;P2;SDS_P1;SDS_P2;PMS_P1;PMS_P2;Temp;Humidity;BMP_temperature;BMP_pressure;BME280_temperature;BME280_humidity;BME280_pressure;Samples;Min_cycle;Max_cycle;Signal;HPM_P1;HPM_P2
2021/06/28 00:01:47;;;;;;;8.75;6.25;;;17.90;99.90;;;;;;5020280;28;20060;-83
2021/06/28 00:04:13;;;;;;;9.63;6.50;;;17.80;99.90;;;;;;5023192;28;20034;-82
2021/06/28 00:06:40;;;;;;;9.07;6.10;;;17.80;99.90;;;;;;5026143;28;20038;-83
2021/06/28 00:09:06;;;;;;;8.20;7.30;;;17.70;99.90;;;;;;5030941;28;20034;-83
2021/06/28 00:11:32;;;;;;;6.80;5.65;;;17.60;99.90;;;;;;5018147;28;20367;-83
2021/06/28 00:13:58;;;;;;;113.63;20.48;;;17.60;99.90;;;;;;5026771;28;20032;-83
2021/06/28 00:16:24;;;;;;;8.80;6.35;;;17.60;99.90;;;;;;5020122;28;20033;-83
2021/06/28 00:18:52;;;;;;;9.48;5.40;;;17.60;99.90;;;;;;5033679;28;20044;-83
2021/06/28 00:21:20;;;;;;;7.65;4.70;;;17.60;99.90;;;;;;5033846;28;20041;-83
2021/06/28 00:23:46;;;;;;;6.03;4.85;;;17.60;99.90;;;;;;5028031;28;20049;-83
2021/06/28 00:26:13;;;;;;;8.88;6.65;;;17.70;99.90;;;;;;5030101;28;20037;-83
2021/06/28 00:28:39;;;;;;;9.40;6.88;;;17.80;99.90;;;;;;5032875;28;20037;-84
2021/06/28 00:31:05;;;;;;;19.13;7.38;;;18.00;99.90;;;;;;5034036;28;20352;-83
2021/06/28 00:33:31;;;;;;;9.75;8.85;;;18.20;99.90;;;;;;5018562;28;20105;-84
2021/06/28 00:35:57;;;;;;;10.30;8.70;;;18.20;99.90;;;;;;5013648;28;20037;-83
2021/06/28 00:38:24;;;;;;;11.93;9.63;;;18.30;99.90;;;;;;5028726;28;20060;-83
2021/06/28 00:40:50;;;;;;;11.40;10.18;;;18.30;99.90;;;;;;5031230;28;20060;-83
2021/06/28 00:43:16;;;;;;;10.23;9.20;;;18.30;99.90;;;;;;5015496;28;20041;-84
2021/06/28 00:45:43;;;;;;;14.55;10.20;;;18.30;99.90;;;;;;5025099;28;20037;-82
2021/06/28 00:48:11;;;;;;;10.60;9.07;;;18.30;99.90;;;;;;5033577;28;20061;-83
2021/06/28 00:50:43;;;;;;;15.10;9.98;;;18.30;99.90;;;;;;5034371;28;20029;-84
2021/06/28 00:53:12;;;;;;;11.35;9.70;;;18.40;99.90;;;;;;5017210;28;20411;-83
2021/06/28 00:55:41;;;;;;;10.80;9.35;;;18.40;99.90;;;;;;5014228;28;20048;-82
2021/06/28 00:58:08;;;;;;;10.48;9.27;;;18.40;99.90;;;;;;5018889;28;20049;-82
2021/06/28 01:00:35;;;;;;;11.10;9.55;;;18.40;99.90;;;;;;5015086;28;20045;-83
2021/06/28 01:03:02;;;;;;;11.95;9.30;;;18.40;99.90;;;;;;5019349;28;20081;-83
2021/06/28 01:05:32;;;;;;;9.80;8.80;;;18.40;99.90;;;;;;5012879;28;20037;-83
2021/06/28 01:08:02;;;;;;;9.65;8.50;;;18.40;99.90;;;;;;5013610;28;20045;-83
2021/06/28 01:10:29;;;;;;;9.50;8.57;;;18.50;99.90;;;;;;5014566;28;20041;-83
2021/06/28 01:12:56;;;;;;;10.80;9.25;;;18.40;99.90;;;;;;5017870;28;20033;-83
2021/06/28 01:15:24;;;;;;;9.35;8.43;;;18.40;99.90;;;;;;5016379;28;20051;-83
2021/06/28 01:17:51;;;;;;;10.32;9.32;;;18.40;99.90;;;;;;5030118;28;20042;-83
2021/06/28 01:20:21;;;;;;;11.57;9.02;;;18.40;99.90;;;;;;5032495;28;20041;-83
2021/06/28 01:22:52;;;;;;;10.82;8.63;;;18.40;99.90;;;;;;5023660;28;20034;-83
2021/06/28 01:25:20;;;;;;;;;;;18.40;99.90;;;;;;5014740;28;20483;-84
2021/06/28 01:27:47;;;;;;;10.55;9.43;;;18.40;99.90;;;;;;5013107;28;20282;-84
2021/06/28 01:30:21;;;;;;;10.68;9.38;;;18.40;99.90;;;;;;5015100;28;20379;-83
2021/06/28 01:32:49;;;;;;;12.10;9.93;;;18.50;99.90;;;;;;5018463;28;20034;-82
2021/06/28 01:35:17;;;;;;;11.82;9.70;;;18.50;99.90;;;;;;5014218;28;20056;-82
2021/06/28 01:37:45;;;;;;;10.68;9.60;;;18.50;99.90;;;;;;4994771;28;20044;-83
2021/06/28 01:40:13;;;;;;;12.77;10.43;;;18.50;99.90;;;;;;5011935;28;20054;-83
2021/06/28 01:42:40;;;;;;;10.50;9.55;;;18.50;99.90;;;;;;5012558;28;20046;-83
2021/06/28 01:45:09;;;;;;;12.05;9.82;;;18.50;99.90;;;;;;5014575;28;20029;-83
2021/06/28 01:47:36;;;;;;;15.13;9.32;;;18.50;99.90;;;;;;5032640;28;20033;-83
2021/06/28 01:50:06;;;;;;;12.50;9.27;;;18.50;99.90;;;;;;5010976;28;20034;-82
2021/06/28 01:52:32;;;;;;;10.25;9.25;;;18.50;99.90;;;;;;5028780;28;20040;-83
2021/06/28 01:54:59;;;;;;;13.07;8.63;;;18.60;99.90;;;;;;5029419;28;20033;-83
2021/06/28 01:57:25;;;;;;;9.13;8.23;;;18.50;99.90;;;;;;5016651;28;20033;-82
2021/06/28 01:59:51;;;;;;;9.23;8.10;;;18.40;99.90;;;;;;5016570;28;20130;-82
2021/06/28 02:02:17;;;;;;;10.32;9.23;;;18.40;99.90;;;;;;5017397;28;20054;-84
2021/06/28 02:04:47;;;;;;;11.10;9.20;;;18.30;99.90;;;;;;5015921;28;20041;-83
2021/06/28 02:07:14;;;;;;;11.30;9.25;;;18.30;99.90;;;;;;5016399;28;20498;-83
2021/06/28 02:09:40;;;;;;;10.70;9.38;;;18.30;99.90;;;;;;5021066;28;20038;-83
2021/06/28 02:12:07;;;;;;;11.15;9.20;;;18.40;99.90;;;;;;5024637;28;20029;-83
2021/06/28 02:14:34;;;;;;;11.93;10.27;;;18.40;99.90;;;;;;5028881;28;20034;-83
2021/06/28 02:17:00;;;;;;;10.05;9.00;;;18.40;99.90;;;;;;5025497;28;20037;-83
2021/06/28 02:19:27;;;;;;;10.25;9.23;;;18.50;99.90;;;;;;5013900;28;20049;-83
2021/06/28 02:21:54;;;;;;;13.50;9.40;;;18.40;99.90;;;;;;5025529;28;20033;-83
2021/06/28 02:24:20;;;;;;;13.50;9.82;;;18.40;99.90;;;;;;5013026;28;20034;-83
2021/06/28 02:26:47;;;;;;;11.43;10.15;;;18.50;99.90;;;;;;5015031;28;20034;-83
2021/06/28 02:29:14;;;;;;;10.68;9.57;;;18.50;99.90;;;;;;5015623;28;20484;-84
2021/06/28 02:31:41;;;;;;;10.73;9.30;;;18.50;99.90;;;;;;5038533;28;20029;-84
2021/06/28 02:34:07;;;;;;;10.82;8.93;;;18.50;99.90;;;;;;5046935;28;20029;-84
2021/06/28 02:36:33;;;;;;;13.65;9.48;;;18.50;99.90;;;;;;5042685;28;20036;-84
2021/06/28 02:39:00;;;;;;;10.18;8.85;;;18.40;99.90;;;;;;5022720;28;20058;-84
2021/06/28 02:41:27;;;;;;;10.00;9.05;;;18.30;99.90;;;;;;5034386;28;20060;-84
2021/06/28 02:43:55;;;;;;;10.63;9.55;;;18.20;99.90;;;;;;5034715;28;20455;-84
2021/06/28 02:46:22;;;;;;;13.45;9.88;;;18.20;99.90;;;;;;5034813;28;20036;-83
2021/06/28 02:48:48;;;;;;;13.20;9.07;;;18.20;99.90;;;;;;5024475;28;20041;-82
2021/06/28 02:51:16;;;;;;;12.38;10.23;;;18.10;99.90;;;;;;5034627;28;20033;-83
2021/06/28 02:53:43;;;;;;;13.60;10.52;;;18.10;99.90;;;;;;5017432;28;20030;-82
2021/06/28 02:56:19;;;;;;;11.52;10.18;;;18.10;99.90;;;;;;5026503;28;20036;-83
2021/06/28 02:58:52;;;;;;;11.80;9.80;;;18.10;99.90;;;;;;5033977;28;20030;-83
2021/06/28 03:01:20;;;;;;;11.50;9.50;;;18.10;99.90;;;;;;5016507;28;20364;-83
2021/06/28 03:03:47;;;;;;;12.10;10.32;;;18.10;99.90;;;;;;5030955;28;20049;-84
2021/06/28 03:06:14;;;;;;;12.68;10.73;;;18.10;99.90;;;;;;5036782;28;20470;-83
2021/06/28 03:08:44;;;;;;;12.05;10.10;;;18.10;99.90;;;;;;5030155;28;20034;-82
2021/06/28 03:11:11;;;;;;;10.67;8.60;;;18.10;99.90;;;;;;5014875;28;20050;-83
2021/06/28 03:13:38;;;;;;;9.95;9.05;;;18.10;99.90;;;;;;5034465;28;20033;-84
2021/06/28 03:16:05;;;;;;;9.70;8.45;;;18.10;99.90;;;;;;5017801;28;20365;-83
2021/06/28 03:18:33;;;;;;;11.25;8.95;;;18.00;99.90;;;;;;5032136;28;20037;-83
2021/06/28 03:21:00;;;;;;;11.40;9.13;;;18.10;99.90;;;;;;5036195;28;20033;-83
2021/06/28 03:23:27;;;;;;;9.45;8.48;;;18.00;99.90;;;;;;5036870;28;20041;-84
2021/06/28 03:25:53;;;;;;;11.18;8.63;;;17.90;99.90;;;;;;5038646;28;20033;-83
2021/06/28 03:28:20;;;;;;;11.10;9.25;;;17.90;99.90;;;;;;5039744;28;20053;-83
2021/06/28 03:30:46;;;;;;;11.35;9.68;;;17.80;99.90;;;;;;5016349;28;20030;-82
2021/06/28 03:33:13;;;;;;;11.77;10.57;;;17.80;99.90;;;;;;5021342;28;20030;-83
2021/06/28 03:35:39;;;;;;;12.30;9.88;;;17.80;99.90;;;;;;5035262;28;20041;-84
2021/06/28 03:38:05;;;;;;;13.38;9.98;;;17.80;99.90;;;;;;5022762;28;20044;-83
2021/06/28 03:40:35;;;;;;;13.70;10.52;;;17.80;99.90;;;;;;5015243;28;20042;-83
2021/06/28 03:43:04;;;;;;;11.20;10.10;;;17.90;99.90;;;;;;4996468;28;20049;-83
2021/06/28 03:45:30;;;;;;;13.43;12.02;;;18.00;99.90;;;;;;5021573;28;20493;-83
2021/06/28 03:47:57;;;;;;;12.65;10.50;;;18.10;99.90;;;;;;5029697;28;20068;-83
2021/06/28 03:50:23;;;;;;;11.75;10.55;;;18.10;99.90;;;;;;5026310;28;20032;-83
2021/06/28 03:52:50;;;;;;;12.27;10.98;;;18.20;99.90;;;;;;5028749;28;20037;-83
2021/06/28 03:55:17;;;;;;;14.77;11.40;;;18.30;99.90;;;;;;5014925;28;20033;-84
2021/06/28 03:57:43;;;;;;;15.82;11.85;;;18.40;99.90;;;;;;5014037;28;20030;-83
2021/06/28 04:00:13;;;;;;;12.75;10.82;;;18.40;99.90;;;;;;5025308;28;20450;-84
2021/06/28 04:02:41;;;;;;;11.73;10.57;;;18.50;99.90;;;;;;5023841;28;20073;-83
2021/06/28 04:05:09;;;;;;;12.23;10.70;;;18.60;99.90;;;;;;5028007;28;20045;-85
2021/06/28 04:07:35;;;;;;;11.00;9.85;;;18.70;99.90;;;;;;5030878;28;20044;-84
2021/06/28 04:10:04;;;;;;;10.85;9.15;;;18.80;99.90;;;;;;5032051;28;20475;-84
2021/06/28 04:12:30;;;;;;;12.00;10.57;;;18.90;99.90;;;;;;5033453;28;20029;-84
2021/06/28 04:14:57;;;;;;;13.02;10.02;;;19.00;99.90;;;;;;5032750;28;20037;-84
2021/06/28 04:17:23;;;;;;;11.18;9.60;;;19.10;99.90;;;;;;5032899;28;20030;-86
2021/06/28 04:19:50;;;;;;;11.57;10.07;;;19.10;99.90;;;;;;5012705;28;20038;-86
2021/06/28 04:22:16;;;;;;;36.80;33.47;;;19.20;99.90;;;;;;5021806;28;20056;-86
2021/06/28 04:24:42;;;;;;;13.77;9.13;;;19.30;99.90;;;;;;5033050;28;20033;-86
2021/06/28 04:27:08;;;;;;;13.88;9.48;;;19.30;99.90;;;;;;5033752;28;20041;-86
2021/06/28 04:29:35;;;;;;;10.95;9.82;;;19.30;99.90;;;;;;5031506;28;20471;-86
2021/06/28 04:32:03;;;;;;;11.02;9.27;;;19.40;99.90;;;;;;5031713;28;20041;-86
2021/06/28 04:34:30;;;;;;;11.88;9.25;;;19.50;99.90;;;;;;5017019;28;20451;-87
2021/06/28 04:36:56;;;;;;;241.90;90.88;;;19.50;99.90;;;;;;5019748;28;20373;-86
2021/06/28 04:39:23;;;;;;;11.60;9.50;;;19.50;99.90;;;;;;5033543;28;20036;-85
2021/06/28 04:41:49;;;;;;;12.95;9.52;;;19.60;99.90;;;;;;5031566;28;20036;-85
2021/06/28 04:44:15;;;;;;;11.32;9.18;;;19.70;99.90;;;;;;5024515;28;20024;-85
2021/06/28 04:46:45;;;;;;;9.35;8.43;;;19.80;99.90;;;;;;5033534;28;20026;-84
2021/06/28 04:49:12;;;;;;;10.07;8.00;;;19.80;99.90;;;;;;5012377;28;20404;-83
2021/06/28 04:51:39;;;;;;;11.90;8.57;;;19.90;99.90;;;;;;5032151;28;20280;-85
2021/06/28 04:54:06;;;;;;;10.55;8.45;;;19.90;99.90;;;;;;5036130;28;20056;-83
2021/06/28 04:56:32;;;;;;;9.38;7.97;;;19.90;99.90;;;;;;5027697;28;20046;-84
2021/06/28 04:58:58;;;;;;;10.63;7.70;;;20.00;99.90;;;;;;5016798;28;20030;-84
2021/06/28 05:01:24;;;;;;;9.93;7.57;;;20.10;99.90;;;;;;5016157;28;20042;-85
2021/06/28 05:03:50;;;;;;;8.10;7.28;;;20.20;99.90;;;;;;5014439;28;20041;-84
2021/06/28 05:06:17;;;;;;;8.68;7.78;;;20.30;99.90;;;;;;5027724;28;20049;-85
2021/06/28 05:08:43;;;;;;;8.48;6.72;;;20.50;99.90;;;;;;5032763;28;20509;-84
2021/06/28 05:11:09;;;;;;;8.48;6.95;;;20.70;99.90;;;;;;5014785;28;20034;-84
2021/06/28 05:13:35;;;;;;;8.05;6.13;;;21.40;99.90;;;;;;5015238;28;20030;-84
2021/06/28 05:16:02;;;;;;;7.55;5.30;;;22.70;99.90;;;;;;5028005;28;20034;-85
2021/06/28 05:18:28;;;;;;;6.40;5.47;;;24.10;99.90;;;;;;5013674;28;20049;-85
2021/06/28 05:20:54;;;;;;;6.93;5.57;;;24.30;99.90;;;;;;5025113;28;20391;-85
2021/06/28 05:23:20;;;;;;;7.00;5.70;;;24.10;99.90;;;;;;5024550;28;20041;-85
2021/06/28 05:25:47;;;;;;;6.82;5.05;;;23.90;99.90;;;;;;5033102;28;20036;-84
2021/06/28 05:28:13;;;;;;;4.72;4.32;;;24.70;99.90;;;;;;5030145;28;20038;-84
2021/06/28 05:30:39;;;;;;;7.55;4.57;;;26.10;98.70;;;;;;5030833;28;20045;-84
2021/06/28 05:33:06;;;;;;;4.32;3.88;;;27.40;94.50;;;;;;5037800;28;20025;-84
2021/06/28 05:35:32;;;;;;;5.20;3.83;;;27.80;92.80;;;;;;5036997;28;20057;-84
2021/06/28 05:37:58;;;;;;;7.43;3.60;;;27.50;91.20;;;;;;5022070;28;20050;-84
2021/06/28 05:40:25;;;;;;;6.15;3.88;;;26.50;91.40;;;;;;5030124;28;20056;-84
2021/06/28 05:42:51;;;;;;;5.40;4.05;;;25.90;92.00;;;;;;5029863;28;20032;-84
2021/06/28 05:45:17;;;;;;;5.20;3.17;;;26.50;90.80;;;;;;5048044;28;20045;-81
2021/06/28 05:47:44;;;;;;;4.45;3.20;;;28.10;89.30;;;;;;5039529;28;20024;-83
2021/06/28 05:50:14;;;;;;;4.15;3.63;;;28.10;84.40;;;;;;5040885;28;20028;-84
2021/06/28 05:52:41;;;;;;;46.53;21.10;;;28.40;82.30;;;;;;5055783;28;20033;-83
2021/06/28 05:55:08;;;;;;;4.55;3.60;;;29.10;80.30;;;;;;5039183;28;20038;-81
2021/06/28 05:57:34;;;;;;;218.18;24.13;;;28.70;77.40;;;;;;5026671;28;20041;-76
2021/06/28 06:00:00;;;;;;;5.07;3.08;;;29.00;76.30;;;;;;5017314;28;20052;-77
2021/06/28 06:02:27;;;;;;;3.80;2.78;;;27.40;78.20;;;;;;5036266;28;20395;-77
2021/06/28 06:04:53;;;;;;;3.45;1.88;;;27.80;80.80;;;;;;5034955;28;20038;-77
2021/06/28 06:07:19;;;;;;;2.72;1.73;;;29.90;73.10;;;;;;5035584;28;20399;-77
2021/06/28 06:09:45;;;;;;;3.33;2.55;;;30.00;71.80;;;;;;5026203;28;20029;-77
2021/06/28 06:12:13;;;;;;;2.95;2.55;;;29.10;73.10;;;;;;5035819;28;20037;-77
2021/06/28 06:14:40;;;;;;;3.72;2.40;;;28.90;73.90;;;;;;5023020;28;20026;-77
2021/06/28 06:17:06;;;;;;;3.95;2.22;;;29.50;71.10;;;;;;5027534;28;20045;-76
2021/06/28 06:19:32;;;;;;;3.55;2.50;;;28.60;72.40;;;;;;5029428;28;20398;-77
2021/06/28 06:21:58;;;;;;;2.50;2.20;;;27.90;74.70;;;;;;5020548;28;20033;-76
2021/06/28 06:24:28;;;;;;;2.83;2.53;;;28.30;73.50;;;;;;5034671;28;20030;-77
2021/06/28 06:26:56;;;;;;;2.40;2.20;;;28.50;73.40;;;;;;5016013;28;20026;-76
2021/06/28 06:29:24;;;;;;;4.32;2.80;;;28.90;71.60;;;;;;5020341;28;20060;-77
2021/06/28 06:31:50;;;;;;;4.75;2.80;;;29.80;71.00;;;;;;5020426;28;20360;-77
2021/06/28 06:34:17;;;;;;;3.67;2.20;;;30.50;70.00;;;;;;5029747;28;20033;-77
2021/06/28 06:36:43;;;;;;;3.08;2.35;;;30.40;67.90;;;;;;5015328;28;20033;-78
2021/06/28 06:39:09;;;;;;;2.95;2.65;;;29.70;69.90;;;;;;5015449;28;20463;-77
2021/06/28 06:41:36;;;;;;;2.72;2.45;;;29.60;70.70;;;;;;5033716;28;20033;-80
2021/06/28 06:44:02;;;;;;;3.80;2.63;;;29.10;70.00;;;;;;5034064;28;20033;-76
2021/06/28 06:46:29;;;;;;;3.20;2.50;;;28.60;71.60;;;;;;5032791;28;20033;-82
2021/06/28 06:48:55;;;;;;;3.10;2.25;;;28.70;70.30;;;;;;5013022;28;20420;-79
2021/06/28 06:51:21;;;;;;;3.80;2.33;;;29.00;70.80;;;;;;5034605;28;20026;-81
2021/06/28 06:53:47;;;;;;;3.28;2.58;;;29.40;69.70;;;;;;5034289;28;20037;-77
2021/06/28 06:56:14;;;;;;;4.00;2.42;;;29.20;69.90;;;;;;5033607;28;20392;-78
2021/06/28 06:58:40;;;;;;;3.42;2.80;;;29.90;68.50;;;;;;5034736;28;20042;-78
2021/06/28 07:01:09;;;;;;;3.92;2.45;;;30.40;66.30;;;;;;5012640;28;20042;-79
2021/06/28 07:03:35;;;;;;;4.68;3.00;;;30.30;66.20;;;;;;5015058;28;20475;-79
2021/06/28 07:06:01;;;;;;;2.80;2.30;;;29.60;67.20;;;;;;5028524;28;20474;-80
2021/06/28 07:08:28;;;;;;;2.85;2.58;;;29.50;67.20;;;;;;5033595;28;20045;-79
2021/06/28 07:10:54;;;;;;;6.80;2.78;;;29.10;67.50;;;;;;5034416;28;20394;-78
2021/06/28 07:13:20;;;;;;;3.33;2.65;;;28.70;68.10;;;;;;5013380;28;20041;-79
2021/06/28 07:15:47;;;;;;;5.40;3.20;;;29.00;69.60;;;;;;5014810;28;20050;-75
2021/06/28 07:18:13;;;;;;;3.95;2.72;;;29.30;69.00;;;;;;5023992;28;20510;-80
2021/06/28 07:20:39;;;;;;;4.15;2.55;;;29.30;69.60;;;;;;5016071;28;20052;-80
2021/06/28 07:23:06;;;;;;;4.20;2.80;;;29.90;66.90;;;;;;5033166;28;20033;-80
2021/06/28 07:25:33;;;;;;;3.60;2.70;;;30.40;65.30;;;;;;5022801;28;20482;-80
2021/06/28 07:28:00;;;;;;;3.83;3.15;;;30.10;65.90;;;;;;5033639;28;20056;-79
2021/06/28 07:30:26;;;;;;;5.25;3.28;;;29.40;66.80;;;;;;5034027;28;20034;-78
2021/06/28 07:32:53;;;;;;;4.38;2.80;;;30.40;66.80;;;;;;5028483;28;20075;-75
2021/06/28 07:35:20;;;;;;;3.90;2.85;;;30.10;64.60;;;;;;5018719;28;20037;-77
2021/06/28 07:37:47;;;;;;;4.35;2.63;;;29.20;67.50;;;;;;5025285;28;20037;-78
2021/06/28 07:40:17;;;;;;;3.20;2.53;;;29.80;65.80;;;;;;5020571;28;20049;-78
2021/06/28 07:42:43;;;;;;;7.35;3.58;;;29.30;64.90;;;;;;5020259;28;20044;-79
2021/06/28 07:45:10;;;;;;;3.83;2.83;;;28.60;65.70;;;;;;5018869;28;20619;-78
2021/06/28 07:47:36;;;;;;;3.47;2.80;;;28.60;66.00;;;;;;5024333;28;20501;-79
2021/06/28 07:50:04;;;;;;;3.78;3.00;;;28.40;68.30;;;;;;5021341;28;20056;-79
2021/06/28 07:52:30;;;;;;;3.67;3.15;;;28.10;69.20;;;;;;5022289;28;20486;-79
2021/06/28 07:54:59;;;;;;;3.47;3.03;;;27.70;68.80;;;;;;5022779;28;20037;-79
2021/06/28 07:57:25;;;;;;;3.60;3.20;;;27.50;70.90;;;;;;5018744;28;20029;-79
2021/06/28 07:59:52;;;;;;;5.25;2.95;;;27.40;72.30;;;;;;5026015;28;20033;-77
2021/06/28 08:02:18;;;;;;;3.55;3.15;;;27.30;72.30;;;;;;5029674;28;20431;-80
2021/06/28 08:04:44;;;;;;;3.72;3.42;;;27.80;69.30;;;;;;5019373;28;20371;-79
2021/06/28 08:07:10;;;;;;;4.15;3.75;;;28.40;69.20;;;;;;5020165;28;20041;-79
2021/06/28 08:09:36;;;;;;;4.95;3.80;;;28.90;67.10;;;;;;5017794;28;20039;-79
2021/06/28 08:12:03;;;;;;;3.53;3.22;;;28.30;69.10;;;;;;5005812;28;20044;-79
2021/06/28 08:14:29;;;;;;;3.53;2.88;;;28.00;67.70;;;;;;5021714;28;20025;-79
2021/06/28 08:16:55;;;;;;;6.55;3.55;;;27.30;69.40;;;;;;5010357;28;20060;-79
2021/06/28 08:19:22;;;;;;;5.78;3.38;;;27.00;70.20;;;;;;5021775;28;20041;-80
2021/06/28 08:21:48;;;;;;;5.70;3.80;;;27.40;69.80;;;;;;5019990;28;20471;-79
2021/06/28 08:24:16;;;;;;;5.00;4.00;;;27.60;70.20;;;;;;5017464;28;20048;-77
2021/06/28 08:26:44;;;;;;;4.65;4.20;;;27.90;70.60;;;;;;5032672;28;20025;-79
2021/06/28 08:29:11;;;;;;;4.55;4.15;;;28.30;69.70;;;;;;5031848;28;20052;-80
2021/06/28 08:31:38;;;;;;;5.15;3.92;;;28.00;69.20;;;;;;5032061;28;20037;-73
2021/06/28 08:34:04;;;;;;;5.20;4.20;;;28.40;68.00;;;;;;5009865;28;20042;-74
2021/06/28 08:36:31;;;;;;;7.80;5.45;;;27.80;68.80;;;;;;5025196;28;20036;-74
2021/06/28 08:38:57;;;;;;;8.35;4.35;;;28.00;71.00;;;;;;5030366;28;20053;-74
2021/06/28 08:41:26;;;;;;;4.38;3.63;;;29.40;70.20;;;;;;5026188;28;20037;-75
2021/06/28 08:43:52;;;;;;;8.95;4.32;;;29.80;66.30;;;;;;5013652;28;20383;-75
2021/06/28 08:46:19;;;;;;;4.70;3.70;;;29.90;64.00;;;;;;5014083;28;20033;-73
2021/06/28 08:48:46;;;;;;;6.70;3.58;;;29.40;67.50;;;;;;5024038;28;20033;-74
2021/06/28 08:51:14;;;;;;;3.95;3.55;;;28.30;68.30;;;;;;5032050;28;20072;-76
2021/06/28 08:53:40;;;;;;;4.00;3.60;;;27.80;68.20;;;;;;5032341;28;20026;-77
2021/06/28 08:56:07;;;;;;;544.17;62.78;;;27.60;70.50;;;;;;5019692;28;20021;-77
2021/06/28 08:58:34;;;;;;;4.03;3.13;;;27.50;70.10;;;;;;5013582;28;20038;-78
2021/06/28 09:01:01;;;;;;;471.50;429.58;;;27.20;72.10;;;;;;5023741;28;20053;-77
2021/06/28 09:03:27;;;;;;;152.82;53.60;;;27.10;71.90;;;;;;5032632;28;20049;-76
2021/06/28 09:06:00;;;;;;;8.18;7.47;;;27.00;73.20;;;;;;5039811;28;20388;-77
2021/06/28 09:08:26;;;;;;;12.57;5.55;;;26.50;74.00;;;;;;5019755;28;20046;-78
2021/06/28 09:10:53;;;;;;;8.05;4.93;;;26.80;74.10;;;;;;5021976;28;20417;-76
2021/06/28 09:13:38;;;;;;;5.47;4.38;;;26.60;74.70;;;;;;5047984;28;20036;-75
2021/06/28 09:16:21;;;;;;;6.00;4.43;;;26.20;77.20;;;;;;5046307;28;20064;-76
2021/06/28 09:18:58;;;;;;;5.40;4.28;;;26.70;75.60;;;;;;5042321;28;20048;-76
2021/06/28 09:21:32;;;;;;;6.80;5.40;;;27.00;75.60;;;;;;5024516;28;20037;-74
2021/06/28 09:24:01;;;;;;;7.90;4.80;;;26.50;74.50;;;;;;5034748;28;20033;-75
2021/06/28 09:26:34;;;;;;;7.03;5.05;;;26.50;75.90;;;;;;5018180;28;20487;-75
2021/06/28 09:29:06;;;;;;;5.45;4.03;;;26.40;76.40;;;;;;5030253;28;20038;-75
2021/06/28 09:31:44;;;;;;;6.25;4.28;;;26.30;75.50;;;;;;5029498;28;20037;-75
2021/06/28 09:34:19;;;;;;;8.20;4.07;;;26.30;76.30;;;;;;5024356;28;20048;-74
2021/06/28 09:36:55;;;;;;;15.02;5.72;;;26.30;75.20;;;;;;5025739;28;20030;-75
2021/06/28 09:39:29;;;;;;;9.68;4.72;;;25.90;76.60;;;;;;5021439;28;20053;-78
2021/06/28 09:42:11;;;;;;;10.77;4.22;;;26.00;77.10;;;;;;5035600;28;20044;-74
2021/06/28 09:44:55;;;;;;;4.10;3.70;;;26.20;76.70;;;;;;5029805;28;20378;-75
2021/06/28 09:47:24;;;;;;;9.10;4.25;;;26.10;76.40;;;;;;5027950;28;20034;-76
2021/06/28 09:50:01;;;;;;;5.32;4.18;;;25.90;76.70;;;;;;5022626;28;20033;-76
2021/06/28 09:52:43;;;;;;;5.07;3.92;;;25.70;76.30;;;;;;5032665;28;20033;-76
2021/06/28 09:55:31;;;;;;;5.05;4.15;;;25.50;76.30;;;;;;5021400;28;20029;-74
2021/06/28 09:58:25;;;;;;;6.75;4.43;;;25.20;77.20;;;;;;5034701;28;20029;-74
2021/06/28 10:01:03;;;;;;;7.68;4.40;;;25.20;78.30;;;;;;5020779;28;20045;-79
2021/06/28 10:03:34;;;;;;;5.50;3.97;;;24.80;78.70;;;;;;5025234;28;20069;-75
2021/06/28 10:06:15;;;;;;;4.60;3.92;;;24.70;80.00;;;;;;5017939;28;20379;-75
2021/06/28 10:08:45;;;;;;;4.22;3.80;;;24.80;80.70;;;;;;5019931;28;20033;-76
2021/06/28 10:11:23;;;;;;;4.38;3.97;;;24.80;80.70;;;;;;5035332;28;20033;-75
2021/06/28 10:14:00;;;;;;;6.43;4.30;;;24.70;80.90;;;;;;5017858;28;20030;-75
2021/06/28 10:16:36;;;;;;;5.07;4.32;;;25.00;81.00;;;;;;5033851;28;20037;-76
2021/06/28 10:19:07;;;;;;;5.60;4.45;;;25.20;80.10;;;;;;5015534;28;20046;-76
2021/06/28 10:21:34;;;;;;;4.72;4.32;;;25.20;79.60;;;;;;5015304;28;20057;-76
2021/06/28 10:24:00;;;;;;;6.82;6.22;;;25.50;78.60;;;;;;5026573;28;20029;-76
2021/06/28 10:26:27;;;;;;;7.43;5.97;;;25.80;78.30;;;;;;5024120;28;20383;-76
2021/06/28 10:28:56;;;;;;;7.10;5.47;;;26.10;77.10;;;;;;5021582;28;20033;-76
2021/06/28 10:31:22;;;;;;;8.93;5.18;;;26.60;76.30;;;;;;5028156;28;20057;-76
2021/06/28 10:33:55;;;;;;;6.93;4.55;;;27.10;74.90;;;;;;5026908;28;20414;-76
2021/06/28 10:36:25;;;;;;;5.53;3.78;;;27.60;75.20;;;;;;5017993;28;20029;-77
2021/06/28 10:38:54;;;;;;;4.95;4.45;;;28.30;74.50;;;;;;5017015;28;20037;-75
2021/06/28 10:41:43;;;;;;;7.20;4.50;;;27.60;72.70;;;;;;5030667;28;20038;-76
2021/06/28 10:44:15;;;;;;;16.42;14.75;;;26.70;74.60;;;;;;5014776;28;20042;-77
2021/06/28 10:46:46;;;;;;;7.95;7.15;;;27.00;75.10;;;;;;5020214;28;20033;-77
2021/06/28 10:49:12;;;;;;;6.13;4.35;;;27.40;75.60;;;;;;5017473;28;20038;-77
2021/06/28 10:51:47;;;;;;;4.80;4.28;;;28.10;72.90;;;;;;4997366;28;20037;-77
2021/06/28 10:54:19;;;;;;;4.32;3.92;;;28.20;72.20;;;;;;5030798;28;20233;-77
2021/06/28 10:56:52;;;;;;;5.05;3.85;;;27.90;72.30;;;;;;5034533;28;20037;-75
2021/06/28 10:59:23;;;;;;;4.00;3.60;;;27.70;71.70;;;;;;5020545;28;20406;-75
2021/06/28 11:01:55;;;;;;;5.05;4.20;;;27.90;73.20;;;;;;5033341;28;20046;-75
2021/06/28 11:04:26;;;;;;;4.18;3.75;;;27.90;71.90;;;;;;5033402;28;20034;-75
2021/06/28 11:06:52;;;;;;;4.75;3.72;;;28.40;72.30;;;;;;5035193;28;20045;-76
2021/06/28 11:09:40;;;;;;;7.32;3.70;;;28.10;70.20;;;;;;5016052;28;20045;-76
2021/06/28 11:12:20;;;;;;;5.15;4.60;;;27.80;70.60;;;;;;5034202;28;20029;-75
2021/06/28 11:14:58;;;;;;;6.05;4.43;;;27.80;69.40;;;;;;5017616;28;20049;-76
2021/06/28 11:17:46;;;;;;;4.93;4.03;;;28.00;70.50;;;;;;5015750;28;20475;-76
2021/06/28 11:20:35;;;;;;;4.30;3.72;;;27.80;71.50;;;;;;5002216;28;20068;-76
2021/06/28 11:23:10;;;;;;;4.78;3.28;;;28.10;68.00;;;;;;5015411;28;20034;-75
2021/06/28 11:25:38;;;;;;;4.93;3.60;;;28.80;67.90;;;;;;5014748;28;20037;-75
2021/06/28 11:28:04;;;;;;;2.92;2.63;;;28.80;65.10;;;;;;5018020;28;20033;-76
2021/06/28 11:30:37;;;;;;;5.97;3.20;;;28.60;66.70;;;;;;5026471;28;20030;-76
2021/06/28 11:33:09;;;;;;;6.45;3.25;;;29.10;65.50;;;;;;5030190;28;20391;-76
2021/06/28 11:35:51;;;;;;;3.60;2.92;;;29.30;64.60;;;;;;5020002;28;20375;-76
2021/06/28 11:38:24;;;;;;;5.20;3.00;;;29.30;66.10;;;;;;5027862;28;20044;-75
2021/06/28 11:40:58;;;;;;;3.60;3.08;;;29.30;63.70;;;;;;5013475;28;20403;-76
2021/06/28 11:43:40;;;;;;;4.55;2.90;;;29.00;64.30;;;;;;5023983;28;20044;-76
2021/06/28 11:46:15;;;;;;;3.95;3.00;;;28.90;65.50;;;;;;5032782;28;20026;-76
2021/06/28 11:48:48;;;;;;;3.50;3.00;;;28.70;64.40;;;;;;5032507;28;20045;-75
2021/06/28 11:51:22;;;;;;;4.38;2.83;;;29.30;64.40;;;;;;5032917;28;20040;-76
2021/06/28 11:53:55;;;;;;;3.60;2.80;;;29.10;64.30;;;;;;5033280;28;20030;-76
2021/06/28 11:56:33;;;;;;;4.60;2.95;;;28.70;64.80;;;;;;5014342;28;20030;-76
2021/06/28 11:59:07;;;;;;;5.25;2.78;;;28.60;64.70;;;;;;5014340;28;20037;-75
2021/06/28 12:01:39;;;;;;;4.50;2.78;;;28.60;64.10;;;;;;5014021;28;20050;-76
2021/06/28 12:04:08;;;;;;;3.63;2.55;;;28.40;64.60;;;;;;5023230;28;20514;-76
2021/06/28 12:06:36;;;;;;;3.38;2.70;;;28.60;62.50;;;;;;5021417;28;20057;-76
2021/06/28 12:09:06;;;;;;;3.13;2.78;;;28.70;64.40;;;;;;5015741;28;20045;-76
2021/06/28 12:11:33;;;;;;;;;;;28.70;62.70;;;;;;5033778;28;20037;-75
2021/06/28 12:13:59;;;;;;;3.55;2.85;;;28.80;62.50;;;;;;5022176;28;19913;-76
2021/06/28 12:16:27;;;;;;;3.45;2.17;;;28.70;62.00;;;;;;5022400;28;20030;-77
2021/06/28 12:19:07;;;;;;;2.83;2.30;;;28.70;61.50;;;;;;5022246;28;20037;-77
2021/06/28 12:21:37;;;;;;;3.00;2.70;;;28.70;61.40;;;;;;5029145;28;20080;-77
2021/06/28 12:24:08;;;;;;;5.65;2.33;;;28.70;61.40;;;;;;5032230;28;20458;-76
2021/06/28 12:26:36;;;;;;;3.40;2.78;;;29.00;62.80;;;;;;5032291;28;20041;-79
2021/06/28 12:29:29;;;;;;;3.30;2.63;;;29.10;61.20;;;;;;5031658;28;20495;-77
2021/06/28 12:32:03;;;;;;;2.80;2.00;;;29.30;59.50;;;;;;5013852;28;20046;-77
2021/06/28 12:34:30;;;;;;;2.85;2.50;;;29.60;59.20;;;;;;5033099;28;20375;-77
2021/06/28 12:36:57;;;;;;;3.08;2.55;;;29.50;58.70;;;;;;5016888;28;20030;-73
2021/06/28 12:39:25;;;;;;;3.95;2.13;;;29.50;59.50;;;;;;5030374;28;20044;-77
2021/06/28 12:42:09;;;;;;;6.10;2.50;;;29.80;59.10;;;;;;5031781;28;20048;-77
2021/06/28 12:44:35;;;;;;;3.72;2.60;;;30.00;59.10;;;;;;5016244;28;20041;-77
2021/06/28 12:47:03;;;;;;;4.00;2.72;;;30.20;57.40;;;;;;5013218;28;20057;-78
2021/06/28 12:49:29;;;;;;;3.45;2.28;;;29.70;58.40;;;;;;5014439;28;20046;-77
2021/06/28 12:52:32;;;;;;;2.65;2.25;;;29.90;57.50;;;;;;5030224;28;20037;-77